sensor_id;sensor_type;location;lat;lon;timestamp;pressure;altitude;pressure_sealevel;temperature;humidity
19526;BME280;9907;42.676;26.348;2023-07-20T00:01:46;98345.88;;;26.51;52.59
19526;BME280;9907;42.676;26.348;2023-07-20T00:04:13;98335.94;;;26.45;53.55
19526;BME280;9907;42.676;26.348;2023-07-20T00:06:39;98341.66;;;26.43;54.42
19526;BME280;9907;42.676;26.348;2023-07-20T00:09:06;98333.16;;;26.40;54.32
19526;BME280;9907;42.676;26.348;2023-07-20T00:11:31;98334.63;;;26.26;54.96
19526;BME280;9907;42.676;26.348;2023-07-20T00:13:57;98331.72;;;26.15;55.26
19526;BME280;9907;42.676;26.348;2023-07-20T00:16:22;98339.88;;;26.10;54.89
19526;BME280;9907;42.676;26.348;2023-07-20T00:18:49;98342.03;;;26.08;55.90
19526;BME280;9907;42.676;26.348;2023-07-20T00:21:14;98385.56;;;26.10;55.30
19526;BME280;9907;42.676;26.348;2023-07-20T00:23:40;98459.28;;;25.83;56.67
19526;BME280;9907;42.676;26.348;2023-07-20T00:26:05;98487.41;;;25.95;56.31
19526;BME280;9907;42.676;26.348;2023-07-20T00:28:31;98452.56;;;25.91;56.08
19526;BME280;9907;42.676;26.348;2023-07-20T00:30:56;98429.34;;;26.27;56.87
19526;BME280;9907;42.676;26.348;2023-07-20T00:33:24;98440.19;;;26.38;55.49
19526;BME280;9907;42.676;26.348;2023-07-20T00:35:50;98439.09;;;26.61;54.92
19526;BME280;9907;42.676;26.348;2023-07-20T00:38:16;98436.00;;;26.74;54.41
19526;BME280;9907;42.676;26.348;2023-07-20T00:40:41;98393.81;;;26.75;54.06
19526;BME280;9907;42.676;26.348;2023-07-20T00:43:08;98387.19;;;26.71;54.76
19526;BME280;9907;42.676;26.348;2023-07-20T00:45:34;98379.47;;;26.68;55.09
19526;BME280;9907;42.676;26.348;2023-07-20T00:48:02;98370.63;;;26.61;55.09
19526;BME280;9907;42.676;26.348;2023-07-20T00:50:29;98379.69;;;26.61;55.44
19526;BME280;9907;42.676;26.348;2023-07-20T00:52:56;98401.28;;;26.58;55.61
19526;BME280;9907;42.676;26.348;2023-07-20T00:55:23;98381.78;;;26.54;54.67
19526;BME280;9907;42.676;26.348;2023-07-20T00:57:49;98381.75;;;26.49;54.77
19526;BME280;9907;42.676;26.348;2023-07-20T01:00:16;98376.44;;;26.43;55.06
19526;BME280;9907;42.676;26.348;2023-07-20T01:02:41;98354.72;;;26.36;54.49
19526;BME280;9907;42.676;26.348;2023-07-20T01:05:07;98376.63;;;26.36;54.93
19526;BME280;9907;42.676;26.348;2023-07-20T01:08:04;98365.69;;;26.36;54.93
19526;BME280;9907;42.676;26.348;2023-07-20T01:10:38;98368.75;;;26.40;53.76
19526;BME280;9907;42.676;26.348;2023-07-20T01:13:06;98368.19;;;26.38;52.94
19526;BME280;9907;42.676;26.348;2023-07-20T01:15:34;98354.50;;;26.38;53.35
19526;BME280;9907;42.676;26.348;2023-07-20T01:17:59;98350.09;;;26.37;52.77
19526;BME280;9907;42.676;26.348;2023-07-20T01:20:28;98356.63;;;26.36;52.45
19526;BME280;9907;42.676;26.348;2023-07-20T01:31:23;98314.50;;;26.37;51.82
19526;BME280;9907;42.676;26.348;2023-07-20T01:33:50;98308.78;;;26.38;50.61
19526;BME280;9907;42.676;26.348;2023-07-20T01:36:18;98305.25;;;26.43;49.98
19526;BME280;9907;42.676;26.348;2023-07-20T01:38:44;98296.84;;;26.49;49.88
19526;BME280;9907;42.676;26.348;2023-07-20T01:41:10;98277.16;;;26.52;49.89
19526;BME280;9907;42.676;26.348;2023-07-20T01:43:36;98265.94;;;26.54;48.47
19526;BME280;9907;42.676;26.348;2023-07-20T01:46:01;98253.91;;;26.55;49.08
19526;BME280;9907;42.676;26.348;2023-07-20T01:48:27;98251.25;;;26.65;47.90
19526;BME280;9907;42.676;26.348;2023-07-20T01:50:52;98236.25;;;26.68;47.36
19526;BME280;9907;42.676;26.348;2023-07-20T01:53:19;98218.69;;;26.69;47.01
19526;BME280;9907;42.676;26.348;2023-07-20T01:55:45;98225.59;;;26.71;47.70
19526;BME280;9907;42.676;26.348;2023-07-20T01:58:10;98205.59;;;26.76;46.90
19526;BME280;9907;42.676;26.348;2023-07-20T02:00:38;98189.59;;;26.89;46.80
19526;BME280;9907;42.676;26.348;2023-07-20T02:03:05;98161.19;;;27.05;45.99
19526;BME280;9907;42.676;26.348;2023-07-20T02:05:30;98128.16;;;27.22;45.66
19526;BME280;9907;42.676;26.348;2023-07-20T02:07:56;98080.75;;;27.27;46.42
19526;BME280;9907;42.676;26.348;2023-07-20T02:10:21;98048.38;;;27.24;45.82
19526;BME280;9907;42.676;26.348;2023-07-20T02:12:47;98064.53;;;27.20;46.17
19526;BME280;9907;42.676;26.348;2023-07-20T02:15:13;98050.53;;;27.17;46.57
19526;BME280;9907;42.676;26.348;2023-07-20T02:17:40;98041.81;;;27.20;46.03
19526;BME280;9907;42.676;26.348;2023-07-20T02:20:07;98062.06;;;27.19;46.93
19526;BME280;9907;42.676;26.348;2023-07-20T02:22:37;98092.22;;;27.24;45.54
19526;BME280;9907;42.676;26.348;2023-07-20T02:25:06;98102.97;;;27.30;46.26
19526;BME280;9907;42.676;26.348;2023-07-20T02:27:35;98122.44;;;27.29;46.29
19526;BME280;9907;42.676;26.348;2023-07-20T02:30:02;98155.56;;;27.27;46.31
19526;BME280;9907;42.676;26.348;2023-07-20T02:32:28;98150.84;;;27.13;46.68
19526;BME280;9907;42.676;26.348;2023-07-20T02:34:54;98166.44;;;27.07;47.25
19526;BME280;9907;42.676;26.348;2023-07-20T02:37:19;98177.44;;;27.12;46.96
19526;BME280;9907;42.676;26.348;2023-07-20T02:39:45;98195.78;;;27.12;46.95
19526;BME280;9907;42.676;26.348;2023-07-20T02:42:10;98197.13;;;27.04;48.22
19526;BME280;9907;42.676;26.348;2023-07-20T02:44:36;98192.66;;;26.98;47.44
19526;BME280;9907;42.676;26.348;2023-07-20T02:47:01;98204.38;;;26.88;47.28
19526;BME280;9907;42.676;26.348;2023-07-20T02:49:27;98208.72;;;26.84;47.95
19526;BME280;9907;42.676;26.348;2023-07-20T02:51:52;98219.69;;;26.84;47.92
19526;BME280;9907;42.676;26.348;2023-07-20T02:54:18;98215.53;;;26.82;47.48
19526;BME280;9907;42.676;26.348;2023-07-20T02:56:43;98224.53;;;26.77;47.57
19526;BME280;9907;42.676;26.348;2023-07-20T02:59:09;98231.56;;;26.68;48.21
19526;BME280;9907;42.676;26.348;2023-07-20T03:01:35;98228.28;;;26.66;48.19
19526;BME280;9907;42.676;26.348;2023-07-20T03:04:00;98234.56;;;26.67;47.95
19526;BME280;9907;42.676;26.348;2023-07-20T03:06:26;98250.31;;;26.49;50.79
19526;BME280;9907;42.676;26.348;2023-07-20T03:08:51;98240.41;;;26.22;52.17
19526;BME280;9907;42.676;26.348;2023-07-20T03:11:19;98247.25;;;26.19;51.41
19526;BME280;9907;42.676;26.348;2023-07-20T03:13:46;98252.44;;;26.21;52.28
19526;BME280;9907;42.676;26.348;2023-07-20T03:16:13;98258.84;;;26.09;52.75
19526;BME280;9907;42.676;26.348;2023-07-20T03:18:43;98254.97;;;26.05;52.94
19526;BME280;9907;42.676;26.348;2023-07-20T03:21:09;98258.81;;;26.04;53.22
19526;BME280;9907;42.676;26.348;2023-07-20T03:23:39;98258.16;;;25.97;52.77
19526;BME280;9907;42.676;26.348;2023-07-20T03:26:05;98258.94;;;25.93;52.82
19526;BME280;9907;42.676;26.348;2023-07-20T03:28:36;98260.75;;;25.87;53.51
19526;BME280;9907;42.676;26.348;2023-07-20T03:31:02;98263.06;;;25.95;53.54
19526;BME280;9907;42.676;26.348;2023-07-20T03:33:29;98256.00;;;25.99;53.66
19526;BME280;9907;42.676;26.348;2023-07-20T03:35:55;98252.09;;;25.95;53.63
19526;BME280;9907;42.676;26.348;2023-07-20T03:38:21;98249.66;;;25.94;54.47
19526;BME280;9907;42.676;26.348;2023-07-20T03:43:16;98251.53;;;26.15;53.87
19526;BME280;9907;42.676;26.348;2023-07-20T03:45:41;98249.44;;;26.22;53.59
19526;BME280;9907;42.676;26.348;2023-07-20T03:48:06;98260.78;;;26.31;53.60
19526;BME280;9907;42.676;26.348;2023-07-20T03:50:32;98272.88;;;26.35;53.50
19526;BME280;9907;42.676;26.348;2023-07-20T03:52:58;98275.78;;;26.28;54.04
19526;BME280;9907;42.676;26.348;2023-07-20T03:55:23;98268.03;;;26.20;55.55
19526;BME280;9907;42.676;26.348;2023-07-20T03:57:49;98266.59;;;26.17;55.28
19526;BME280;9907;42.676;26.348;2023-07-20T04:00:16;98273.34;;;26.10;55.34
19526;BME280;9907;42.676;26.348;2023-07-20T04:02:42;98274.09;;;26.05;55.38
19526;BME280;9907;42.676;26.348;2023-07-20T04:05:08;98278.00;;;26.09;55.02
19526;BME280;9907;42.676;26.348;2023-07-20T04:07:33;98270.00;;;26.03;55.17
19526;BME280;9907;42.676;26.348;2023-07-20T04:09:59;98265.09;;;26.05;55.62
19526;BME280;9907;42.676;26.348;2023-07-20T04:12:24;98270.63;;;26.10;54.31
19526;BME280;9907;42.676;26.348;2023-07-20T04:14:49;98283.53;;;26.14;54.17
19526;BME280;9907;42.676;26.348;2023-07-20T04:17:15;98284.38;;;26.15;55.22
19526;BME280;9907;42.676;26.348;2023-07-20T04:19:40;98294.59;;;26.20;54.19
19526;BME280;9907;42.676;26.348;2023-07-20T04:22:06;98294.91;;;26.23;54.52
19526;BME280;9907;42.676;26.348;2023-07-20T04:24:31;98292.22;;;26.28;53.63
19526;BME280;9907;42.676;26.348;2023-07-20T04:26:57;98290.91;;;26.31;53.69
19526;BME280;9907;42.676;26.348;2023-07-20T04:29:22;98295.03;;;26.33;52.99
19526;BME280;9907;42.676;26.348;2023-07-20T04:31:47;98288.19;;;26.36;53.47
19526;BME280;9907;42.676;26.348;2023-07-20T04:34:13;98289.19;;;26.51;53.30
19526;BME280;9907;42.676;26.348;2023-07-20T04:36:38;98276.81;;;26.71;52.91
19526;BME280;9907;42.676;26.348;2023-07-20T04:39:04;98282.75;;;26.89;52.44
19526;BME280;9907;42.676;26.348;2023-07-20T04:41:30;98282.94;;;27.09;52.04
19526;BME280;9907;42.676;26.348;2023-07-20T04:43:55;98297.34;;;27.27;51.75
19526;BME280;9907;42.676;26.348;2023-07-20T04:46:21;98305.25;;;27.55;51.65
19526;BME280;9907;42.676;26.348;2023-07-20T04:48:47;98304.75;;;27.68;50.93
19526;BME280;9907;42.676;26.348;2023-07-20T04:51:13;98303.72;;;27.79;51.60
19526;BME280;9907;42.676;26.348;2023-07-20T04:53:38;98290.34;;;27.88;50.53
19526;BME280;9907;42.676;26.348;2023-07-20T04:56:04;98286.22;;;27.90;51.11
19526;BME280;9907;42.676;26.348;2023-07-20T04:58:30;98286.13;;;28.12;49.76
19526;BME280;9907;42.676;26.348;2023-07-20T05:00:55;98293.53;;;28.17;49.96
19526;BME280;9907;42.676;26.348;2023-07-20T05:03:21;98292.50;;;28.33;49.71
19526;BME280;9907;42.676;26.348;2023-07-20T05:05:47;98288.41;;;28.40;49.78
19526;BME280;9907;42.676;26.348;2023-07-20T05:08:13;98285.13;;;28.48;49.33
19526;BME280;9907;42.676;26.348;2023-07-20T05:10:39;98291.53;;;28.69;49.18
19526;BME280;9907;42.676;26.348;2023-07-20T05:13:04;98286.59;;;28.81;48.65
19526;BME280;9907;42.676;26.348;2023-07-20T05:15:33;98293.19;;;28.85;49.02
19526;BME280;9907;42.676;26.348;2023-07-20T05:17:59;98282.50;;;28.89;48.33
19526;BME280;9907;42.676;26.348;2023-07-20T05:20:24;98284.69;;;29.12;48.66
19526;BME280;9907;42.676;26.348;2023-07-20T05:22:50;98285.53;;;29.23;47.66
19526;BME280;9907;42.676;26.348;2023-07-20T05:25:15;98288.28;;;29.48;46.59
19526;BME280;9907;42.676;26.348;2023-07-20T05:27:45;98278.09;;;29.59;46.43
19526;BME280;9907;42.676;26.348;2023-07-20T05:30:11;98284.09;;;29.86;45.90
19526;BME280;9907;42.676;26.348;2023-07-20T05:32:37;98281.63;;;29.89;45.67
19526;BME280;9907;42.676;26.348;2023-07-20T05:35:02;98291.72;;;30.09;45.42
19526;BME280;9907;42.676;26.348;2023-07-20T05:37:28;98277.00;;;30.39;45.13
19526;BME280;9907;42.676;26.348;2023-07-20T05:39:53;98271.44;;;30.49;44.32
19526;BME280;9907;42.676;26.348;2023-07-20T05:42:19;98270.91;;;30.47;44.21
19526;BME280;9907;42.676;26.348;2023-07-20T05:44:44;98274.50;;;30.48;44.25
19526;BME280;9907;42.676;26.348;2023-07-20T05:47:10;98267.09;;;30.43;44.27
19526;BME280;9907;42.676;26.348;2023-07-20T05:49:35;98254.72;;;30.79;44.08
19526;BME280;9907;42.676;26.348;2023-07-20T05:52:01;98263.16;;;30.98;43.47
19526;BME280;9907;42.676;26.348;2023-07-20T05:54:27;98262.50;;;30.72;43.88
19526;BME280;9907;42.676;26.348;2023-07-20T05:56:54;98260.16;;;30.89;43.70
19526;BME280;9907;42.676;26.348;2023-07-20T05:59:19;98262.06;;;30.94;43.90
19526;BME280;9907;42.676;26.348;2023-07-20T06:01:45;98255.72;;;31.27;43.90
19526;BME280;9907;42.676;26.348;2023-07-20T06:04:13;98261.34;;;31.46;43.47
19526;BME280;9907;42.676;26.348;2023-07-20T06:06:39;98259.50;;;31.70;42.99
19526;BME280;9907;42.676;26.348;2023-07-20T06:09:04;98258.81;;;31.78;43.35
19526;BME280;9907;42.676;26.348;2023-07-20T06:11:33;98254.00;;;31.65;43.01
19526;BME280;9907;42.676;26.348;2023-07-20T06:13:59;98252.72;;;31.58;43.40
19526;BME280;9907;42.676;26.348;2023-07-20T06:16:24;98251.72;;;31.96;42.98
19526;BME280;9907;42.676;26.348;2023-07-20T06:18:50;98247.44;;;32.09;42.77
19526;BME280;9907;42.676;26.348;2023-07-20T06:21:15;98244.31;;;32.15;42.15
19526;BME280;9907;42.676;26.348;2023-07-20T06:23:41;98241.34;;;32.30;41.75
19526;BME280;9907;42.676;26.348;2023-07-20T06:26:06;98233.19;;;32.44;41.38
19526;BME280;9907;42.676;26.348;2023-07-20T06:28:32;98226.03;;;32.62;41.29
19526;BME280;9907;42.676;26.348;2023-07-20T06:31:02;98227.06;;;32.85;41.23
19526;BME280;9907;42.676;26.348;2023-07-20T06:33:28;98230.88;;;32.89;40.45
19526;BME280;9907;42.676;26.348;2023-07-20T06:35:54;98218.72;;;33.03;40.51
19526;BME280;9907;42.676;26.348;2023-07-20T06:38:20;98218.59;;;33.27;39.49
19526;BME280;9907;42.676;26.348;2023-07-20T06:40:46;98214.53;;;33.38;39.42
19526;BME280;9907;42.676;26.348;2023-07-20T06:43:12;98222.81;;;33.38;39.56
19526;BME280;9907;42.676;26.348;2023-07-20T06:45:37;98216.88;;;33.31;39.48
19526;BME280;9907;42.676;26.348;2023-07-20T06:48:03;98219.56;;;33.36;39.27
19526;BME280;9907;42.676;26.348;2023-07-20T06:50:29;98218.34;;;33.56;39.39
19526;BME280;9907;42.676;26.348;2023-07-20T06:52:54;98213.97;;;33.82;38.46
19526;BME280;9907;42.676;26.348;2023-07-20T06:55:20;98214.56;;;33.93;38.98
19526;BME280;9907;42.676;26.348;2023-07-20T06:57:45;98217.34;;;33.93;38.09
19526;BME280;9907;42.676;26.348;2023-07-20T07:00:11;98219.63;;;34.18;37.83
19526;BME280;9907;42.676;26.348;2023-07-20T07:02:37;98228.66;;;34.23;38.09
19526;BME280;9907;42.676;26.348;2023-07-20T07:05:03;98227.81;;;34.23;38.13
19526;BME280;9907;42.676;26.348;2023-07-20T07:07:29;98230.06;;;34.35;37.70
19526;BME280;9907;42.676;26.348;2023-07-20T07:09:54;98225.69;;;34.69;37.38
19526;BME280;9907;42.676;26.348;2023-07-20T07:12:19;98220.25;;;34.64;36.54
19526;BME280;9907;42.676;26.348;2023-07-20T07:14:45;98217.31;;;34.47;36.85
19526;BME280;9907;42.676;26.348;2023-07-20T07:17:10;98214.66;;;34.78;37.26
19526;BME280;9907;42.676;26.348;2023-07-20T07:19:36;98214.53;;;34.83;36.47
19526;BME280;9907;42.676;26.348;2023-07-20T07:22:03;98212.06;;;34.82;35.82
19526;BME280;9907;42.676;26.348;2023-07-20T07:24:28;98209.00;;;35.05;35.94
19526;BME280;9907;42.676;26.348;2023-07-20T07:26:59;98210.47;;;35.25;35.39
19526;BME280;9907;42.676;26.348;2023-07-20T07:29:24;98210.38;;;35.39;34.81
19526;BME280;9907;42.676;26.348;2023-07-20T07:31:51;98211.28;;;35.56;34.63
19526;BME280;9907;42.676;26.348;2023-07-20T07:34:16;98210.44;;;35.56;35.07
19526;BME280;9907;42.676;26.348;2023-07-20T07:36:42;98212.91;;;35.57;35.30
19526;BME280;9907;42.676;26.348;2023-07-20T07:39:08;98210.09;;;35.80;33.97
19526;BME280;9907;42.676;26.348;2023-07-20T07:41:34;98209.50;;;36.00;34.27
19526;BME280;9907;42.676;26.348;2023-07-20T07:44:00;98204.88;;;35.87;33.42
19526;BME280;9907;42.676;26.348;2023-07-20T07:46:25;98198.28;;;35.66;34.87
19526;BME280;9907;42.676;26.348;2023-07-20T07:48:50;98208.00;;;35.54;33.85
19526;BME280;9907;42.676;26.348;2023-07-20T07:51:16;98207.75;;;35.64;34.34
19526;BME280;9907;42.676;26.348;2023-07-20T07:53:41;98205.72;;;35.87;34.67
19526;BME280;9907;42.676;26.348;2023-07-20T07:56:07;98203.16;;;36.08;33.55
19526;BME280;9907;42.676;26.348;2023-07-20T07:58:33;98209.63;;;35.86;34.12
19526;BME280;9907;42.676;26.348;2023-07-20T08:00:59;98209.31;;;35.88;34.52
19526;BME280;9907;42.676;26.348;2023-07-20T08:03:25;98195.94;;;36.07;33.87
19526;BME280;9907;42.676;26.348;2023-07-20T08:05:53;98195.84;;;36.12;33.57
19526;BME280;9907;42.676;26.348;2023-07-20T08:08:19;98197.25;;;36.01;33.78
19526;BME280;9907;42.676;26.348;2023-07-20T08:10:44;98199.28;;;36.18;33.80
19526;BME280;9907;42.676;26.348;2023-07-20T08:13:10;98199.50;;;36.47;32.88
19526;BME280;9907;42.676;26.348;2023-07-20T08:15:35;98200.34;;;36.56;33.22
19526;BME280;9907;42.676;26.348;2023-07-20T08:18:01;98203.91;;;36.99;33.02
19526;BME280;9907;42.676;26.348;2023-07-20T08:20:27;98198.81;;;37.19;32.67
19526;BME280;9907;42.676;26.348;2023-07-20T08:22:55;98202.78;;;37.18;32.66
19526;BME280;9907;42.676;26.348;2023-07-20T08:25:21;98208.84;;;36.85;32.61
19526;BME280;9907;42.676;26.348;2023-07-20T08:27:46;98198.38;;;37.08;32.78
19526;BME280;9907;42.676;26.348;2023-07-20T08:30:13;98197.78;;;37.40;32.12
19526;BME280;9907;42.676;26.348;2023-07-20T08:32:38;98196.16;;;37.39;31.78
19526;BME280;9907;42.676;26.348;2023-07-20T08:35:05;98203.78;;;37.04;31.48
19526;BME280;9907;42.676;26.348;2023-07-20T08:37:31;98205.38;;;36.97;31.22
19526;BME280;9907;42.676;26.348;2023-07-20T08:39:56;98206.88;;;37.20;31.46
19526;BME280;9907;42.676;26.348;2023-07-20T08:42:22;98196.50;;;37.38;31.46
19526;BME280;9907;42.676;26.348;2023-07-20T08:44:48;98193.03;;;37.41;31.40
19526;BME280;9907;42.676;26.348;2023-07-20T08:47:16;98188.69;;;36.97;31.58
19526;BME280;9907;42.676;26.348;2023-07-20T08:49:41;98186.41;;;37.08;31.41
19526;BME280;9907;42.676;26.348;2023-07-20T08:52:08;98190.16;;;37.29;30.92
19526;BME280;9907;42.676;26.348;2023-07-20T08:54:34;98192.13;;;37.20;31.13
19526;BME280;9907;42.676;26.348;2023-07-20T08:57:05;98191.13;;;37.16;31.43
19526;BME280;9907;42.676;26.348;2023-07-20T08:59:31;98185.72;;;37.19;31.32
19526;BME280;9907;42.676;26.348;2023-07-20T09:02:00;98190.97;;;37.21;31.80
19526;BME280;9907;42.676;26.348;2023-07-20T09:04:27;98181.91;;;37.41;31.75
19526;BME280;9907;42.676;26.348;2023-07-20T09:06:53;98185.66;;;37.53;31.77
19526;BME280;9907;42.676;26.348;2023-07-20T09:09:18;98183.00;;;37.66;30.42
19526;BME280;9907;42.676;26.348;2023-07-20T09:11:47;98185.84;;;37.48;31.47
19526;BME280;9907;42.676;26.348;2023-07-20T09:14:13;98191.25;;;37.36;30.86
19526;BME280;9907;42.676;26.348;2023-07-20T09:16:49;98187.16;;;37.34;31.02
19526;BME280;9907;42.676;26.348;2023-07-20T09:19:16;98170.88;;;37.62;31.74
19526;BME280;9907;42.676;26.348;2023-07-20T09:21:48;98184.22;;;37.30;30.65
19526;BME280;9907;42.676;26.348;2023-07-20T09:24:14;98179.63;;;37.43;31.02
19526;BME280;9907;42.676;26.348;2023-07-20T09:26:41;98180.31;;;37.23;31.41
19526;BME280;9907;42.676;26.348;2023-07-20T09:29:08;98178.66;;;37.30;31.71
19526;BME280;9907;42.676;26.348;2023-07-20T09:31:37;98172.63;;;37.28;31.22
19526;BME280;9907;42.676;26.348;2023-07-20T09:34:04;98171.44;;;37.38;31.11
19526;BME280;9907;42.676;26.348;2023-07-20T09:36:33;98161.84;;;37.65;30.86
19526;BME280;9907;42.676;26.348;2023-07-20T09:38:59;98161.06;;;37.56;30.86
19526;BME280;9907;42.676;26.348;2023-07-20T09:41:24;98158.31;;;37.47;30.92
19526;BME280;9907;42.676;26.348;2023-07-20T09:43:52;98157.66;;;37.33;30.95
19526;BME280;9907;42.676;26.348;2023-07-20T09:46:18;98151.47;;;37.36;31.80
19526;BME280;9907;42.676;26.348;2023-07-20T09:48:52;98156.53;;;37.25;31.30
19526;BME280;9907;42.676;26.348;2023-07-20T09:51:24;98158.25;;;36.92;31.88
19526;BME280;9907;42.676;26.348;2023-07-20T09:53:52;98153.50;;;37.01;31.21
19526;BME280;9907;42.676;26.348;2023-07-20T09:56:21;98157.41;;;37.17;31.69
19526;BME280;9907;42.676;26.348;2023-07-20T09:58:47;98150.50;;;37.32;31.92
19526;BME280;9907;42.676;26.348;2023-07-20T10:01:18;98150.97;;;37.34;30.85
19526;BME280;9907;42.676;26.348;2023-07-20T10:03:46;98154.50;;;37.05;31.36
19526;BME280;9907;42.676;26.348;2023-07-20T10:06:15;98153.97;;;37.20;31.70
19526;BME280;9907;42.676;26.348;2023-07-20T10:08:42;98147.34;;;37.42;31.86
19526;BME280;9907;42.676;26.348;2023-07-20T10:11:10;98148.63;;;37.44;31.10
19526;BME280;9907;42.676;26.348;2023-07-20T10:13:38;98145.41;;;37.25;32.00
19526;BME280;9907;42.676;26.348;2023-07-20T10:16:11;98128.78;;;37.08;31.41
19526;BME280;9907;42.676;26.348;2023-07-20T10:19:03;98117.78;;;37.20;31.99
19526;BME280;9907;42.676;26.348;2023-07-20T10:21:33;98102.25;;;37.02;31.22
19526;BME280;9907;42.676;26.348;2023-07-20T10:24:01;98083.44;;;36.90;32.39
19526;BME280;9907;42.676;26.348;2023-07-20T10:26:27;98091.63;;;36.95;31.58
19526;BME280;9907;42.676;26.348;2023-07-20T10:28:52;98093.09;;;36.93;31.48
19526;BME280;9907;42.676;26.348;2023-07-20T10:31:19;98090.50;;;36.88;32.39
19526;BME280;9907;42.676;26.348;2023-07-20T10:33:45;98097.25;;;36.70;32.24
19526;BME280;9907;42.676;26.348;2023-07-20T10:36:11;98099.53;;;36.76;32.67
19526;BME280;9907;42.676;26.348;2023-07-20T10:38:42;98119.50;;;36.61;32.08
19526;BME280;9907;42.676;26.348;2023-07-20T10:41:33;98109.69;;;36.46;32.33
19526;BME280;9907;42.676;26.348;2023-07-20T10:44:01;98100.34;;;36.42;32.28
19526;BME280;9907;42.676;26.348;2023-07-20T10:49:09;98088.91;;;36.18;32.82
19526;BME280;9907;42.676;26.348;2023-07-20T10:54:09;98079.06;;;35.95;32.10
19526;BME280;9907;42.676;26.348;2023-07-20T10:56:34;98073.81;;;35.93;32.94
19526;BME280;9907;42.676;26.348;2023-07-20T10:59:00;98076.44;;;35.90;33.04
19526;BME280;9907;42.676;26.348;2023-07-20T11:01:30;98073.19;;;35.88;33.44
19526;BME280;9907;42.676;26.348;2023-07-20T11:03:59;98064.66;;;35.93;32.94
19526;BME280;9907;42.676;26.348;2023-07-20T11:11:49;98072.03;;;35.32;32.46
19526;BME280;9907;42.676;26.348;2023-07-20T11:14:25;98063.38;;;35.34;33.13
19526;BME280;9907;42.676;26.348;2023-07-20T11:16:52;98054.38;;;35.37;33.78
19526;BME280;9907;42.676;26.348;2023-07-20T11:19:20;98060.41;;;35.30;32.81
19526;BME280;9907;42.676;26.348;2023-07-20T11:21:50;98063.19;;;35.30;34.25
19526;BME280;9907;42.676;26.348;2023-07-20T11:24:16;98064.72;;;35.05;32.40
19526;BME280;9907;42.676;26.348;2023-07-20T11:29:12;98051.78;;;35.01;33.13
19526;BME280;9907;42.676;26.348;2023-07-20T11:31:39;98053.53;;;34.88;32.63
19526;BME280;9907;42.676;26.348;2023-07-20T11:34:06;98054.84;;;34.91;32.79
19526;BME280;9907;42.676;26.348;2023-07-20T11:36:31;98053.84;;;34.87;33.62
19526;BME280;9907;42.676;26.348;2023-07-20T11:38:58;98052.19;;;34.86;32.47
19526;BME280;9907;42.676;26.348;2023-07-20T11:41:25;98052.19;;;34.86;33.44
19526;BME280;9907;42.676;26.348;2023-07-20T11:43:51;98050.47;;;34.67;32.13
19526;BME280;9907;42.676;26.348;2023-07-20T11:46:17;98050.47;;;34.45;32.81
19526;BME280;9907;42.676;26.348;2023-07-20T11:48:42;98045.66;;;34.37;32.83
19526;BME280;9907;42.676;26.348;2023-07-20T11:51:16;98030.22;;;34.45;32.74
19526;BME280;9907;42.676;26.348;2023-07-20T11:53:44;98029.09;;;34.46;33.61
19526;BME280;9907;42.676;26.348;2023-07-20T11:56:11;98033.56;;;34.33;32.88
19526;BME280;9907;42.676;26.348;2023-07-20T11:58:42;98037.25;;;34.20;33.43
19526;BME280;9907;42.676;26.348;2023-07-20T12:01:07;98029.75;;;34.20;33.33
19526;BME280;9907;42.676;26.348;2023-07-20T12:03:34;98025.66;;;34.18;32.87
19526;BME280;9907;42.676;26.348;2023-07-20T12:06:09;98028.66;;;34.30;33.74
19526;BME280;9907;42.676;26.348;2023-07-20T12:08:38;98038.13;;;34.29;33.02
19526;BME280;9907;42.676;26.348;2023-07-20T12:11:03;98024.13;;;34.34;33.34
19526;BME280;9907;42.676;26.348;2023-07-20T12:13:42;98032.22;;;34.22;33.53
19526;BME280;9907;42.676;26.348;2023-07-20T12:16:15;98036.75;;;34.18;33.48
19526;BME280;9907;42.676;26.348;2023-07-20T12:18:43;98028.53;;;34.13;33.43
19526;BME280;9907;42.676;26.348;2023-07-20T12:21:10;98043.09;;;34.18;33.93
19526;BME280;9907;42.676;26.348;2023-07-20T12:23:40;98033.31;;;33.99;34.13
19526;BME280;9907;42.676;26.348;2023-07-20T12:26:09;98023.91;;;33.86;33.32
19526;BME280;9907;42.676;26.348;2023-07-20T12:28:42;98025.66;;;33.82;33.09
19526;BME280;9907;42.676;26.348;2023-07-20T12:31:10;98020.81;;;33.88;33.36
19526;BME280;9907;42.676;26.348;2023-07-20T12:33:38;98019.41;;;33.77;33.79
19526;BME280;9907;42.676;26.348;2023-07-20T12:36:04;98028.00;;;33.89;33.43
19526;BME280;9907;42.676;26.348;2023-07-20T12:38:30;98022.50;;;33.75;33.76
19526;BME280;9907;42.676;26.348;2023-07-20T12:41:01;98025.28;;;33.61;34.02
19526;BME280;9907;42.676;26.348;2023-07-20T12:43:26;98007.13;;;33.69;34.54
19526;BME280;9907;42.676;26.348;2023-07-20T12:45:52;98011.22;;;33.71;35.05
19526;BME280;9907;42.676;26.348;2023-07-20T12:48:18;98008.97;;;33.73;35.29
19526;BME280;9907;42.676;26.348;2023-07-20T12:50:43;98002.19;;;33.80;35.14
19526;BME280;9907;42.676;26.348;2023-07-20T12:53:09;98003.00;;;33.80;34.80
19526;BME280;9907;42.676;26.348;2023-07-20T12:55:34;97992.59;;;33.86;35.97
19526;BME280;9907;42.676;26.348;2023-07-20T12:58:00;97994.78;;;33.89;35.75
19526;BME280;9907;42.676;26.348;2023-07-20T13:00:25;97994.78;;;33.89;35.54
19526;BME280;9907;42.676;26.348;2023-07-20T13:02:51;97992.78;;;33.89;35.71
19526;BME280;9907;42.676;26.348;2023-07-20T13:05:17;97994.78;;;33.89;35.82
19526;BME280;9907;42.676;26.348;2023-07-20T13:07:43;97985.00;;;33.91;35.98
19526;BME280;9907;42.676;26.348;2023-07-20T13:10:10;97997.97;;;34.04;36.70
19526;BME280;9907;42.676;26.348;2023-07-20T13:12:36;97998.72;;;33.96;36.45
19526;BME280;9907;42.676;26.348;2023-07-20T13:15:03;98003.69;;;33.86;35.82
19526;BME280;9907;42.676;26.348;2023-07-20T13:17:31;98004.84;;;33.85;36.70
19526;BME280;9907;42.676;26.348;2023-07-20T13:19:57;98000.09;;;33.85;36.06
19526;BME280;9907;42.676;26.348;2023-07-20T13:22:23;98004.13;;;33.79;36.31